createdAt,value
2018-02-17T00:00:31.211Z,23.30
2018-02-17T00:02:58.792Z,23.30
2018-02-17T00:05:26.643Z,23.67
2018-02-17T00:07:54.185Z,29.83
2018-02-17T00:10:21.834Z,27.57
2018-02-17T00:12:49.555Z,31.20
2018-02-17T00:15:17.107Z,34.07
2018-02-17T00:17:45.119Z,64.17
2018-02-17T00:20:12.841Z,50.00
2018-02-17T00:22:40.697Z,31.33
2018-02-17T00:25:08.443Z,36.50
2018-02-17T00:27:36.005Z,39.87
2018-02-17T00:30:03.721Z,30.88
2018-02-17T00:32:31.319Z,30.43
2018-02-17T00:34:59.651Z,44.53
2018-02-17T00:37:27.168Z,50.37
2018-02-17T00:39:55.011Z,37.07
2018-02-17T00:42:22.732Z,40.15
2018-02-17T00:44:50.489Z,26.27
2018-02-17T00:47:18.162Z,23.57
2018-02-17T00:49:45.796Z,25.57
2018-02-17T00:52:14.301Z,33.73
2018-02-17T00:54:42.068Z,25.70
2018-02-17T00:57:10.495Z,25.62
2018-02-17T00:59:38.163Z,29.13
2018-02-17T01:02:05.721Z,29.73
2018-02-17T01:04:33.633Z,30.40
2018-02-17T01:07:01.257Z,34.25
2018-02-17T01:09:29.197Z,22.80
2018-02-17T01:11:56.747Z,23.58
2018-02-17T01:14:24.289Z,24.73
2018-02-17T01:16:51.861Z,29.27
2018-02-17T01:19:19.536Z,41.63
2018-02-17T01:21:47.236Z,34.30
2018-02-17T01:24:14.948Z,34.65
2018-02-17T01:26:42.636Z,30.23
2018-02-17T01:29:10.521Z,32.60
2018-02-17T01:31:38.421Z,28.67
2018-02-17T01:34:06.007Z,41.80
2018-02-17T01:36:33.662Z,27.63
2018-02-17T01:39:01.214Z,27.63
2018-02-17T01:41:28.749Z,31.17
2018-02-17T01:43:56.438Z,22.03
2018-02-17T01:46:24.369Z,30.83
2018-02-17T01:48:51.989Z,22.13
2018-02-17T01:51:19.696Z,23.20
2018-02-17T01:53:47.698Z,19.23
2018-02-17T01:56:15.355Z,26.07
2018-02-17T01:58:43.337Z,30.07
2018-02-17T02:01:11.249Z,24.77
2018-02-17T02:03:39.078Z,25.43
2018-02-17T02:06:06.723Z,24.40
2018-02-17T02:08:34.273Z,27.53
2018-02-17T02:11:02.174Z,38.43
2018-02-17T02:13:29.847Z,39.27
2018-02-17T02:15:57.613Z,30.73
2018-02-17T02:18:25.156Z,27.20
2018-02-17T02:20:52.684Z,24.13
2018-02-17T02:23:21.052Z,31.17
2018-02-17T02:25:48.720Z,42.53
2018-02-17T02:28:16.646Z,29.13
2018-02-17T02:30:44.292Z,28.40
2018-02-17T02:33:11.908Z,32.03
2018-02-17T02:35:39.524Z,32.57
2018-02-17T02:38:07.064Z,31.03
2018-02-17T02:40:34.777Z,22.07
2018-02-17T02:43:02.375Z,21.50
2018-02-17T02:45:29.968Z,19.30
2018-02-17T02:47:57.604Z,25.20
2018-02-17T02:50:25.404Z,28.27
2018-02-17T02:52:53.068Z,30.43
2018-02-17T02:55:20.807Z,30.93
2018-02-17T02:57:48.602Z,26.10
2018-02-17T03:00:16.177Z,21.73
2018-02-17T03:02:43.834Z,25.67
2018-02-17T03:05:11.654Z,24.03
2018-02-17T03:07:39.315Z,19.33
2018-02-17T03:10:07.140Z,19.40
2018-02-17T03:12:34.746Z,22.90
2018-02-17T03:15:02.631Z,22.90
2018-02-17T03:17:30.262Z,23.50
2018-02-17T03:19:57.803Z,22.63
2018-02-17T03:22:25.415Z,25.67
2018-02-17T03:24:52.959Z,23.17
2018-02-17T03:27:20.661Z,23.20
2018-02-17T03:29:48.300Z,22.98
2018-02-17T03:32:15.832Z,21.33
2018-02-17T03:34:43.371Z,23.63
2018-02-17T03:37:11.115Z,23.17
2018-02-17T03:39:39.490Z,25.43
2018-02-17T03:42:07.087Z,24.60
2018-02-17T03:44:34.760Z,21.93
2018-02-17T03:47:02.408Z,21.43
2018-02-17T03:49:30.165Z,24.03
2018-02-17T03:51:57.935Z,30.97
2018-02-17T03:54:25.615Z,34.87
2018-02-17T03:56:53.268Z,28.37
2018-02-17T03:59:21.038Z,28.97
2018-02-17T04:01:48.702Z,30.87
2018-02-17T04:04:16.325Z,36.83
2018-02-17T04:06:43.943Z,36.60
2018-02-17T04:09:12.386Z,42.30
2018-02-17T04:11:39.978Z,45.80
2018-02-17T04:14:07.601Z,41.93
2018-02-17T04:16:35.170Z,37.03
2018-02-17T04:19:02.777Z,31.77
2018-02-17T04:21:30.371Z,39.50
2018-02-17T04:23:58.049Z,42.47
2018-02-17T04:26:26.369Z,36.90
2018-02-17T04:28:54.498Z,58.00
2018-02-17T04:31:22.143Z,47.40
2018-02-17T04:33:49.784Z,46.00
2018-02-17T04:36:17.322Z,41.30
2018-02-17T04:38:45.129Z,40.70
2018-02-17T04:41:24.884Z,37.42
2018-02-17T04:43:58.141Z,38.10
2018-02-17T04:46:31.441Z,41.30
2018-02-17T04:49:09.058Z,33.10
2018-02-17T04:51:38.845Z,30.23
2018-02-17T04:57:10.167Z,39.87
2018-02-17T04:59:55.884Z,36.87
2018-02-17T05:05:33.833Z,44.43
2018-02-17T05:08:13.513Z,44.63
2018-02-17T05:10:41.095Z,97.60
2018-02-17T05:13:08.728Z,41.47
2018-02-17T05:18:38.918Z,41.47
2018-02-17T05:24:26.141Z,44.50
2018-02-17T05:29:57.725Z,45.63
2018-02-17T05:32:30.294Z,35.47
2018-02-17T05:38:00.303Z,33.73
2018-02-17T05:40:37.937Z,31.27
2018-02-17T05:43:05.543Z,31.50
2018-02-17T05:45:37.592Z,29.17
2018-02-17T05:48:06.204Z,33.03
2018-02-17T05:50:34.242Z,31.92
2018-02-17T05:53:02.046Z,65.10
2018-02-17T05:55:29.679Z,32.13
2018-02-17T05:57:57.339Z,36.53
2018-02-17T06:00:24.885Z,35.30
2018-02-17T06:02:52.536Z,32.33
2018-02-17T06:05:20.069Z,34.80
2018-02-17T06:07:47.903Z,28.00
2018-02-17T06:10:15.526Z,26.37
2018-02-17T06:12:43.829Z,25.03
2018-02-17T06:15:11.701Z,25.83
2018-02-17T06:17:39.287Z,22.00
2018-02-17T06:20:07.091Z,24.37
2018-02-17T06:22:34.725Z,29.03
2018-02-17T06:25:02.348Z,27.73
2018-02-17T06:27:30.666Z,21.33
2018-02-17T06:29:58.190Z,19.57
2018-02-17T06:32:25.749Z,20.77
2018-02-17T06:34:53.385Z,20.77
2018-02-17T06:37:20.960Z,18.03
2018-02-17T06:39:48.660Z,23.60
2018-02-17T06:42:16.233Z,17.60
2018-02-17T06:44:43.885Z,18.43
2018-02-17T06:47:11.419Z,21.37
2018-02-17T06:49:39.086Z,21.10
2018-02-17T06:52:06.611Z,19.90
2018-02-17T06:54:34.307Z,22.17
2018-02-17T06:57:01.870Z,17.90
2018-02-17T06:59:29.559Z,15.13
2018-02-17T07:01:57.459Z,17.00
2018-02-17T07:04:25.055Z,15.87
2018-02-17T07:06:52.606Z,15.23
2018-02-17T07:09:20.134Z,18.30
2018-02-17T07:11:47.723Z,18.83
2018-02-17T07:14:15.303Z,18.40
2018-02-17T07:16:42.917Z,19.73
2018-02-17T07:19:10.563Z,18.23
2018-02-17T07:21:38.166Z,19.37
2018-02-17T07:24:05.713Z,23.53
2018-02-17T07:26:33.366Z,17.23
2018-02-17T07:29:00.899Z,23.45
2018-02-17T07:31:28.647Z,22.30
2018-02-17T07:33:57.071Z,21.73
2018-02-17T07:36:24.607Z,18.00
2018-02-17T07:38:52.143Z,19.33
2018-02-17T07:41:19.887Z,14.40
2018-02-17T07:43:48.253Z,17.27
2018-02-17T07:46:15.793Z,17.03
2018-02-17T07:48:44.148Z,26.50
2018-02-17T07:51:11.892Z,18.10
2018-02-17T07:53:39.426Z,18.80
2018-02-17T07:56:06.963Z,19.90
2018-02-17T07:58:35.166Z,21.00
2018-02-17T08:01:02.807Z,20.07
2018-02-17T08:03:30.479Z,25.47
2018-02-17T08:05:58.138Z,19.00
2018-02-17T08:08:25.674Z,19.70
2018-02-17T08:10:53.278Z,23.50
2018-02-17T08:13:21.138Z,20.97
2018-02-17T08:15:48.767Z,22.50
2018-02-17T08:18:16.380Z,20.57
2018-02-17T08:20:43.908Z,21.17
2018-02-17T08:23:12.179Z,24.33
2018-02-17T08:25:40.005Z,20.60
2018-02-17T08:28:07.589Z,26.95
2018-02-17T08:30:35.195Z,23.93
2018-02-17T08:33:02.897Z,22.07
2018-02-17T08:35:31.367Z,17.77
2018-02-17T08:37:59.103Z,19.73
2018-02-17T08:40:26.732Z,24.17
2018-02-17T08:42:54.388Z,17.27
2018-02-17T08:45:22.166Z,20.17
2018-02-17T08:47:49.862Z,21.58
2018-02-17T08:50:17.685Z,26.80
2018-02-17T08:52:45.227Z,37.73
2018-02-17T08:55:12.934Z,28.30
2018-02-17T08:57:40.717Z,24.37
2018-02-17T09:00:08.314Z,29.67
2018-02-17T09:02:35.860Z,19.33
2018-02-17T09:05:03.596Z,15.43
2018-02-17T09:07:31.285Z,19.90
2018-02-17T09:09:59.096Z,16.17
2018-02-17T09:12:26.790Z,26.60
2018-02-17T09:14:54.319Z,16.83
2018-02-17T09:17:21.981Z,28.20
2018-02-17T09:19:49.516Z,17.90
2018-02-17T09:22:17.136Z,20.80
2018-02-17T09:24:44.801Z,18.90
2018-02-17T09:27:12.319Z,18.30
2018-02-17T09:29:39.919Z,17.00
2018-02-17T09:32:07.655Z,20.00
2018-02-17T09:34:35.261Z,17.43
2018-02-17T09:37:02.830Z,16.50
2018-02-17T09:39:30.396Z,21.20
2018-02-17T09:41:58.135Z,17.50
2018-02-17T09:44:26.017Z,17.70
2018-02-17T09:46:53.613Z,16.77
2018-02-17T09:49:21.390Z,17.90
2018-02-17T09:51:49.586Z,16.33
2018-02-17T09:54:17.238Z,19.10
2018-02-17T09:56:45.075Z,24.77
2018-02-17T09:59:13.276Z,20.57
2018-02-17T10:01:41.336Z,15.83
2018-02-17T10:04:09.117Z,18.40
2018-02-17T10:06:36.648Z,17.13
2018-02-17T10:09:04.627Z,22.83
2018-02-17T10:11:32.235Z,15.03
2018-02-17T10:14:00.506Z,17.20
2018-02-17T10:16:28.205Z,17.00
2018-02-17T10:18:55.731Z,17.20
2018-02-17T10:21:23.276Z,24.13
2018-02-17T10:23:50.896Z,24.90
2018-02-17T10:26:18.822Z,25.25
2018-02-17T10:28:46.435Z,18.57
2018-02-17T10:31:14.057Z,14.05
2018-02-17T10:33:41.940Z,17.57
2018-02-17T10:36:09.528Z,23.43
2018-02-17T10:38:37.410Z,24.63
2018-02-17T10:41:05.302Z,26.60
2018-02-17T10:43:32.928Z,15.17
2018-02-17T10:46:00.533Z,28.35
2018-02-17T10:48:28.130Z,37.37
2018-02-17T10:50:55.842Z,20.27
2018-02-17T10:53:23.595Z,21.73
2018-02-17T10:55:51.303Z,23.77
2018-02-17T10:58:18.844Z,17.13
2018-02-17T11:00:46.431Z,23.40
2018-02-17T11:03:14.083Z,21.20
2018-02-17T11:05:41.704Z,23.43
2018-02-17T11:08:09.230Z,17.13
2018-02-17T11:10:37.546Z,18.20
2018-02-17T11:13:10.391Z,20.80
2018-02-17T11:15:43.668Z,22.33
2018-02-17T11:18:11.298Z,18.03
2018-02-17T11:20:39.256Z,16.63
2018-02-17T11:23:07.191Z,18.73
2018-02-17T11:25:34.766Z,22.60
2018-02-17T11:28:02.339Z,20.20
2018-02-17T11:30:30.046Z,18.60
2018-02-17T11:32:57.916Z,17.40
2018-02-17T11:35:25.466Z,21.30
2018-02-17T11:37:53.015Z,16.10
2018-02-17T11:40:21.741Z,56.53
2018-02-17T11:42:49.304Z,18.00
2018-02-17T11:45:17.050Z,20.87
2018-02-17T11:47:44.674Z,16.70
2018-02-17T11:50:12.564Z,20.98
2018-02-17T11:52:40.089Z,19.73
2018-02-17T11:55:07.671Z,19.80
2018-02-17T11:57:36.137Z,14.90
2018-02-17T12:00:03.863Z,18.10
2018-02-17T12:02:33.181Z,14.50
2018-02-17T12:05:00.776Z,47.90
2018-02-17T12:07:28.562Z,17.53
2018-02-17T12:09:56.301Z,14.63
2018-02-17T12:12:23.968Z,20.70
2018-02-17T12:14:51.803Z,14.77
2018-02-17T12:17:19.514Z,17.43
2018-02-17T12:19:47.178Z,16.23
2018-02-17T12:22:14.773Z,15.23
2018-02-17T12:24:42.486Z,17.03
2018-02-17T12:27:10.467Z,16.37
2018-02-17T12:29:38.132Z,17.90
2018-02-17T12:32:05.760Z,15.47
2018-02-17T12:34:33.565Z,16.20
2018-02-17T12:37:01.257Z,19.40
2018-02-17T12:39:29.524Z,12.27
2018-02-17T12:41:57.109Z,21.50
2018-02-17T12:44:24.865Z,16.83
2018-02-17T12:46:52.697Z,12.88
2018-02-17T12:49:20.209Z,17.52
2018-02-17T12:51:47.884Z,16.30
2018-02-17T12:54:15.453Z,22.13
2018-02-17T12:56:43.024Z,21.98
2018-02-17T12:59:10.924Z,21.90
2018-02-17T13:01:38.603Z,19.77
2018-02-17T13:04:06.275Z,14.03
2018-02-17T13:06:34.148Z,13.05
2018-02-17T13:09:01.663Z,11.53
2018-02-17T13:11:29.426Z,10.30
2018-02-17T13:13:56.958Z,12.93
2018-02-17T13:16:24.523Z,13.50
2018-02-17T13:18:52.052Z,11.97
2018-02-17T13:21:19.586Z,11.63
2018-02-17T13:23:47.224Z,12.27
2018-02-17T13:26:15.107Z,10.63
2018-02-17T13:28:42.695Z,10.57
2018-02-17T13:31:11.278Z,9.90
2018-02-17T13:33:38.942Z,11.20
2018-02-17T13:36:06.516Z,21.53
2018-02-17T13:38:34.104Z,9.10
2018-02-17T13:41:01.732Z,11.73
2018-02-17T13:43:29.314Z,9.30
2018-02-17T13:45:56.914Z,11.03
2018-02-17T13:48:24.459Z,9.47
2018-02-17T13:50:52.207Z,11.73
2018-02-17T13:53:20.494Z,9.97
2018-02-17T13:55:48.123Z,10.40
2018-02-17T13:58:15.750Z,13.47
2018-02-17T14:00:43.798Z,10.33
2018-02-17T14:03:12.322Z,10.77
2018-02-17T14:05:40.208Z,10.02
2018-02-17T14:08:07.874Z,8.23
2018-02-17T14:10:35.528Z,9.00
2018-02-17T14:13:03.352Z,9.17
2018-02-17T14:15:30.996Z,9.80
2018-02-17T14:17:58.562Z,10.13
2018-02-17T14:20:26.388Z,9.85
2018-02-17T14:22:53.997Z,9.27
2018-02-17T14:25:21.662Z,8.60
2018-02-17T14:27:49.478Z,10.53
2018-02-17T14:30:17.089Z,10.50
2018-02-17T14:32:44.748Z,14.70
2018-02-17T14:35:12.569Z,16.67
2018-02-17T14:37:40.123Z,13.93
2018-02-17T14:40:07.704Z,13.03
2018-02-17T14:42:35.327Z,17.10
2018-02-17T14:45:03.063Z,13.20
2018-02-17T14:47:30.922Z,18.27
2018-02-17T14:49:58.664Z,13.50
2018-02-17T14:52:27.114Z,11.80
2018-02-17T14:54:54.898Z,12.57
2018-02-17T14:57:22.593Z,14.53
2018-02-17T14:59:50.261Z,12.73
2018-02-17T15:02:17.963Z,10.43
2018-02-17T15:04:45.543Z,11.38
2018-02-17T15:07:13.997Z,23.45
2018-02-17T15:09:41.538Z,29.80
2018-02-17T15:12:09.193Z,15.27
2018-02-17T15:14:36.740Z,19.80
2018-02-17T15:17:04.470Z,17.40
2018-02-17T15:19:32.019Z,12.40
2018-02-17T15:21:59.729Z,21.67
2018-02-17T15:24:27.283Z,19.00
2018-02-17T15:26:55.118Z,17.83
2018-02-17T15:29:22.932Z,12.10
2018-02-17T15:31:50.690Z,9.90
2018-02-17T15:34:18.355Z,12.10
2018-02-17T15:36:45.879Z,16.63
2018-02-17T15:39:13.692Z,15.57
2018-02-17T15:41:41.249Z,11.67
2018-02-17T15:44:09.062Z,9.80
2018-02-17T15:46:36.874Z,9.17
2018-02-17T15:49:04.593Z,12.70
2018-02-17T15:51:32.299Z,15.10
2018-02-17T15:54:00.024Z,12.13
2018-02-17T15:56:27.819Z,11.40
2018-02-17T15:58:55.468Z,15.70
2018-02-17T16:01:23.504Z,13.43
2018-02-17T16:03:51.049Z,16.50
2018-02-17T16:06:18.743Z,13.50
2018-02-17T16:08:46.323Z,13.57
2018-02-17T16:11:14.010Z,15.47
2018-02-17T16:13:41.893Z,13.50
2018-02-17T16:16:09.664Z,12.00
2018-02-17T16:18:37.258Z,10.97
2018-02-17T16:21:05.084Z,19.50
2018-02-17T16:23:32.712Z,12.97
2018-02-17T16:26:00.294Z,7.73
2018-02-17T16:28:27.908Z,34.17
2018-02-17T16:30:55.466Z,15.33
2018-02-17T16:33:23.493Z,14.83
2018-02-17T16:35:51.316Z,10.20
2018-02-17T16:38:18.991Z,9.10
2018-02-17T16:40:46.575Z,11.60
2018-02-17T16:43:14.429Z,8.00
2018-02-17T16:45:42.124Z,8.30
2018-02-17T16:48:09.656Z,9.67
2018-02-17T16:50:37.196Z,10.03
2018-02-17T16:53:05.413Z,9.45
2018-02-17T16:55:33.434Z,12.53
2018-02-17T16:58:01.620Z,10.73
2018-02-17T17:00:29.166Z,11.97
2018-02-17T17:02:56.830Z,8.73
2018-02-17T17:05:24.859Z,11.50
2018-02-17T17:07:52.520Z,12.00
2018-02-17T17:10:20.164Z,14.93
2018-02-17T17:12:48.524Z,11.73
2018-02-17T17:15:16.427Z,10.40
2018-02-17T17:17:44.059Z,10.50
2018-02-17T17:20:11.712Z,10.68
2018-02-17T17:22:39.362Z,11.90
2018-02-17T17:25:06.975Z,14.55
2018-02-17T17:27:34.786Z,12.33
2018-02-17T17:30:03.357Z,11.95
2018-02-17T17:32:31.287Z,11.10
2018-02-17T17:35:00.022Z,11.90
2018-02-17T17:37:28.199Z,11.90
2018-02-17T17:39:55.793Z,13.60
2018-02-17T17:42:23.649Z,14.63
2018-02-17T17:44:52.079Z,12.30
2018-02-17T17:47:19.689Z,12.47
2018-02-17T17:49:47.286Z,13.25
2018-02-17T17:52:14.948Z,14.18
2018-02-17T17:54:42.775Z,18.13
2018-02-17T17:57:10.421Z,15.53
2018-02-17T17:59:38.005Z,17.55
2018-02-17T18:02:05.669Z,16.60
2018-02-17T18:04:33.643Z,15.65
2018-02-17T18:07:01.588Z,15.67
2018-02-17T18:09:29.481Z,16.60
2018-02-17T18:11:57.296Z,18.87
2018-02-17T18:14:24.887Z,19.53
2018-02-17T18:16:52.611Z,14.23
2018-02-17T18:19:20.548Z,19.23
2018-02-17T18:21:48.121Z,17.03
2018-02-17T18:24:15.894Z,19.23
2018-02-17T18:26:43.522Z,21.83
2018-02-17T18:29:11.204Z,20.77
2018-02-17T18:31:38.959Z,18.13
2018-02-17T18:34:06.504Z,18.90
2018-02-17T18:36:34.367Z,25.93
2018-02-17T18:39:01.970Z,24.30
2018-02-17T18:41:29.730Z,22.20
2018-02-17T18:43:57.425Z,21.77
2018-02-17T18:46:25.204Z,29.47
2018-02-17T18:48:52.758Z,31.40
2018-02-17T18:51:20.370Z,28.50
2018-02-17T18:53:48.775Z,28.10
2018-02-17T18:56:16.339Z,26.55
2018-02-17T18:58:43.930Z,20.47
2018-02-17T19:01:11.657Z,35.67
2018-02-17T19:03:39.320Z,29.07
2018-02-17T19:06:06.968Z,14.67
2018-02-17T19:08:34.552Z,16.60
2018-02-17T19:11:03.376Z,16.00
2018-02-17T19:13:31.060Z,23.00
2018-02-17T19:15:58.882Z,17.43
2018-02-17T19:18:26.719Z,22.62
2018-02-17T19:20:54.330Z,20.00
2018-02-17T19:23:21.857Z,17.27
2018-02-17T19:25:49.471Z,15.07
2018-02-17T19:28:17.327Z,16.23
2018-02-17T19:30:45.088Z,13.47
2018-02-17T19:33:12.919Z,14.73
2018-02-17T19:35:40.619Z,15.43
2018-02-17T19:38:08.174Z,15.00
2018-02-17T19:40:35.788Z,14.73
2018-02-17T19:43:03.391Z,16.30
2018-02-17T19:45:30.941Z,17.37
2018-02-17T19:47:58.489Z,19.23
2018-02-17T19:50:26.143Z,20.43
2018-02-17T19:52:53.684Z,21.67
2018-02-17T19:55:21.279Z,20.95
2018-02-17T19:57:48.861Z,21.80
2018-02-17T20:00:16.409Z,26.63
2018-02-17T20:02:44.155Z,20.63
2018-02-17T20:05:11.759Z,22.17
2018-02-17T20:07:39.311Z,20.63
2018-02-17T20:10:06.920Z,20.10
2018-02-17T20:12:34.771Z,25.88
2018-02-17T20:15:02.301Z,28.23
2018-02-17T20:17:29.850Z,25.10
2018-02-17T20:19:57.500Z,31.20
2018-02-17T20:22:25.360Z,28.03
2018-02-17T20:24:53.141Z,30.70
2018-02-17T20:27:20.755Z,34.13
2018-02-17T20:29:48.449Z,37.63
2018-02-17T20:32:16.058Z,35.67
2018-02-17T20:34:44.376Z,39.50
2018-02-17T20:37:12.279Z,34.73
2018-02-17T20:39:39.875Z,34.97
2018-02-17T20:42:07.480Z,35.80
2018-02-17T20:44:35.003Z,35.10
2018-02-17T20:47:03.135Z,34.50
2018-02-17T20:49:30.688Z,34.30
2018-02-17T20:51:58.521Z,37.70
2018-02-17T20:54:26.198Z,41.70
2018-02-17T20:56:54.039Z,33.60
2018-02-17T20:59:21.587Z,36.63
2018-02-17T21:01:49.319Z,37.07
2018-02-17T21:04:17.118Z,33.23
2018-02-17T21:06:44.762Z,39.13
2018-02-17T21:09:12.309Z,34.90
2018-02-17T21:11:39.906Z,38.07
2018-02-17T21:14:07.565Z,35.87
2018-02-17T21:16:35.150Z,41.23
2018-02-17T21:19:02.791Z,32.37
2018-02-17T21:21:30.415Z,34.60
2018-02-17T21:23:58.131Z,37.47
2018-02-17T21:26:25.850Z,36.05
2018-02-17T21:28:53.545Z,35.77
2018-02-17T21:31:21.143Z,39.97
2018-02-17T21:33:48.688Z,38.97
2018-02-17T21:36:16.273Z,42.65
2018-02-17T21:38:43.890Z,41.03
2018-02-17T21:41:11.416Z,39.33
2018-02-17T21:43:39.825Z,55.03
2018-02-17T21:46:07.386Z,43.83
2018-02-17T21:48:35.074Z,40.83
2018-02-17T21:51:02.928Z,40.40
2018-02-17T21:53:30.473Z,39.88
2018-02-17T21:55:58.078Z,41.03
2018-02-17T21:58:25.718Z,41.03
2018-02-17T22:00:54.169Z,45.40
2018-02-17T22:03:21.705Z,48.73
2018-02-17T22:05:49.384Z,40.12
2018-02-17T22:08:16.925Z,33.30
2018-02-17T22:10:44.449Z,41.43
2018-02-17T22:13:12.190Z,44.10
2018-02-17T22:15:39.749Z,42.43
2018-02-17T22:18:07.560Z,38.83
2018-02-17T22:20:35.320Z,42.90
2018-02-17T22:23:02.899Z,42.10
2018-02-17T22:25:30.585Z,43.70
2018-02-17T22:27:58.119Z,38.60
2018-02-17T22:30:25.794Z,42.60
2018-02-17T22:32:53.694Z,43.78
2018-02-17T22:35:21.297Z,41.10
2018-02-17T22:37:48.974Z,45.73
2018-02-17T22:40:16.655Z,43.93
2018-02-17T22:42:44.318Z,46.00
2018-02-17T22:45:11.989Z,40.53
2018-02-17T22:47:39.864Z,49.27
2018-02-17T22:50:07.458Z,44.93
2018-02-17T22:52:35.780Z,51.90
2018-02-17T22:55:03.458Z,42.53
2018-02-17T22:57:31.076Z,42.83
2018-02-17T22:59:58.701Z,44.07
2018-02-17T23:02:26.411Z,50.87
2018-02-17T23:04:53.940Z,60.63
2018-02-17T23:07:21.513Z,46.53
2018-02-17T23:09:49.224Z,44.37
2018-02-17T23:12:17.088Z,41.27
2018-02-17T23:14:44.709Z,43.43
2018-02-17T23:17:12.455Z,41.40
2018-02-17T23:19:40.151Z,44.37
2018-02-17T23:22:07.874Z,45.53
2018-02-17T23:24:35.490Z,35.90
2018-02-17T23:27:03.111Z,47.65
2018-02-17T23:29:30.858Z,50.50
2018-02-17T23:31:58.411Z,42.78
2018-02-17T23:34:25.918Z,44.20
2018-02-17T23:36:53.460Z,50.70
2018-02-17T23:39:21.088Z,49.03
2018-02-17T23:41:48.970Z,41.33
2018-02-17T23:44:16.518Z,45.40
2018-02-17T23:46:44.273Z,50.53
2018-02-17T23:49:12.032Z,60.27
2018-02-17T23:51:39.695Z,61.20
2018-02-17T23:54:07.506Z,62.30
2018-02-17T23:56:35.220Z,57.93
2018-02-17T23:59:02.873Z,65.90
